Friday, October 19, 2018, 11:17 AM GMT
Back to Local

CWAF, Ile Rouge Meteorological Aeronautical Presentation System

Location: , , Canada Lat: 48.083
Local Time: 11:17 AM GMT (11:17 GMT) Lon: -69.55
Time Zone: GMT Elev: 16 ft

Show me the last for .
Show Coded

Time T Td Feel RH Dir Speed Gust Alt SLP Vis Weather Sky Remarks
2018-10-19 11:00 31 19 26 58 280° 6 - - - 0 None
2018-10-19 10:00 31 19 23 59 280° 9 - - - 0 None
2018-10-19 09:00 31 19 21 62 280° 12 - - - 0 None
2018-10-19 08:00 30 19 21 60 280° 12 - - - 0 None
2018-10-19 07:00 31 18 20 59 290° 14 - - - 0 Peak wind: 20 mph (18 kts) from 290° at 01 min
2018-10-19 06:00 31 21 20 63 290° 17 - - - 0 Peak wind: 28 mph (25 kts) from 310° at 12 min
2018-10-19 05:00 32 19 18 58 310° 23 29 - - 0 Peak wind: 28 mph (25 kts) from 300° at 51 min
2018-10-19 04:00 32 20 19 62 310° 21 - - - 0 Peak wind: 27 mph (24 kts) from 320° at 14 min
2018-10-19 03:00 33 21 20 59 310° 23 29 - - 0 Peak wind: 33 mph (29 kts) from 310° at 19 min
2018-10-19 02:00 33 20 21 56 310° 24 - - - 0 Peak wind: 29 mph (26 kts) from 300° at 18 min
2018-10-19 01:00 34 21 20 57 290° 28 33 - - 0 Peak wind: 33 mph (29 kts) from 290° at 56 min
2018-10-19 00:00 34 19 21 53 290° 25 31 - - 0 Peak wind: 35 mph (31 kts) from 290° at 21 min
2018-10-18 23:00 35 21 21 56 290° 26 32 - - 0 Peak wind: 33 mph (29 kts) from 300° at 00 min
2018-10-18 22:00 35 23 21 61 290° 28 33 - - 0 Peak wind: 39 mph (34 kts) from 290° at 29 min
2018-10-18 21:00 33 26 18 75 290° 30 37 - - 0 Peak wind: 43 mph (38 kts) from 300° at 09 min
2018-10-18 20:00 36 24 21 61 300° 32 39 - - 0 Peak wind: 42 mph (37 kts) from 320° at 31 min
2018-10-18 19:00 37 21 23 52 310° 32 40 - - 0 Peak wind: 44 mph (39 kts) from 300° at 01 min
2018-10-18 18:00 37 23 22 56 300° 35 43 - - 0 Peak wind: 43 mph (38 kts) from 300° at 24 min
2018-10-18 17:00 37 24 23 59 300° 33 40 - - 0 Peak wind: 44 mph (39 kts) from 300° at 15 min
2018-10-18 16:00 36 25 22 62 300° 35 41 - - 0 Peak wind: 41 mph (36 kts) from 290° at 52 min
1-hr Precip Total: 0.01"
2018-10-18 15:00 36 25 22 64 300° 32 38 - - 0 Peak wind: 39 mph (34 kts) from 310° at 49 min
2018-10-18 14:00 36 26 22 66 300° 26 33 - - 0 Peak wind: 36 mph (32 kts) from 300° at 32 min
2018-10-18 13:00 34 26 20 71 290° 29 36 - - 0 Peak wind: 39 mph (34 kts) from 290° at 06 min
2018-10-18 12:00 36 26 21 68 310° 29 37 - - 0 Peak wind: 39 mph (34 kts) from 300° at 11 min

Support USWX by starting your Amazon purchase here.